^^
Your Local Weather - Clay, NY Station Historical Data
Daily Summary for June 8, 2017 Units:  English    Metric   Both
« Previous Day
Next Day »
Daily Weekly Monthly Yearly Custom
  High: Low: Average:
Temperature: 77.3 °F 45.8 °F 61.6 °F
Dew Point: 58.1 °F 42.5 °F 49 °F
Humidity: 94% 30% 67%
Wind Speed: 4.0mph 0.0mph 0.7mph
Wind Gust: 7.0mph - -
Wind- - WSW
Pressure: 30.03 in 29.76 in -
Precipitation: 0.00 in    
Historical Graphs
 
 
Tabular Data for June 8, 2017
Time Temperature Dew Point Pressure Wind Wind Speed Wind Gust Humidity Rainfall Rate (Hourly) solar
00:00 50.1 °F 47.3 °F 30.03 in Calm     90% 0.00 in 0 W/m2
00:06 50.1 °F 47.3 °F 30.03 in Calm     90% 0.00 in 0 W/m2
00:12 50.1 °F 47.3 °F 30.03 in Calm     90% 0.00 in 0 W/m2
00:18 50.0 °F 47.5 °F 30.03 in Calm     91% 0.00 in 0 W/m2
00:24 49.9 °F 47.4 °F 30.03 in Calm     91% 0.00 in 0 W/m2
00:30 49.7 °F 47.2 °F 30.03 in Calm     91% 0.00 in 0 W/m2
00:36 49.6 °F 47.1 °F 30.03 in Calm     91% 0.00 in 0 W/m2
00:42 49.5 °F 47.0 °F 30.03 in Calm     91% 0.00 in 0 W/m2
00:48 49.5 °F 47.0 °F 30.03 in Calm     91% 0.00 in 0 W/m2
01:00 49.2 °F 46.7 °F 30.03 in Calm     91% 0.00 in 0 W/m2
01:06 49.2 °F 46.7 °F 30.03 in Calm     91% 0.00 in 0 W/m2
01:12 49.1 °F 46.9 °F 30.03 in Calm     92% 0.00 in 0 W/m2
01:18 48.9 °F 46.7 °F 30.03 in Calm     92% 0.00 in 0 W/m2
01:24 48.7 °F 46.2 °F 30.03 in Calm     91% 0.00 in 0 W/m2
01:30 48.6 °F 46.4 °F 30.03 in Calm     92% 0.00 in 0 W/m2
01:36 48.5 °F 46.3 °F 30.03 in Calm     92% 0.00 in 0 W/m2
01:42 48.3 °F 46.1 °F 30.03 in Calm     92% 0.00 in 0 W/m2
01:48 48.2 °F 46.0 °F 30.03 in Calm     92% 0.00 in 0 W/m2
01:54 48.1 °F 45.9 °F 30.03 in Calm     92% 0.00 in 0 W/m2
02:00 47.9 °F 45.7 °F 30.03 in Calm     92% 0.00 in 0 W/m2
02:06 47.8 °F 45.6 °F 30.03 in Calm     92% 0.00 in 0 W/m2
02:12 47.7 °F 45.5 °F 30.03 in Calm     92% 0.00 in 0 W/m2
02:18 47.6 °F 45.4 °F 30.03 in Calm     92% 0.00 in 0 W/m2
02:24 47.5 °F 45.3 °F 30.03 in Calm     92% 0.00 in 0 W/m2
02:30 47.4 °F 45.2 °F 30.03 in Calm     92% 0.00 in 0 W/m2
02:36 47.3 °F 45.1 °F 30.03 in Calm     92% 0.00 in 0 W/m2
02:42 47.2 °F 45.0 °F 30.02 in Calm     92% 0.00 in 0 W/m2
02:48 47.1 °F 44.9 °F 30.02 in Calm     92% 0.00 in 0 W/m2
02:54 47.1 °F 44.9 °F 30.02 in Calm     92% 0.00 in 0 W/m2
03:00 47.0 °F 44.8 °F 30.02 in Calm     92% 0.00 in 0 W/m2
03:06 46.9 °F 44.7 °F 30.02 in Calm     92% 0.00 in 0 W/m2
03:12 46.9 °F 44.7 °F 30.02 in Calm     92% 0.00 in 0 W/m2
03:18 47.1 °F 45.2 °F 30.02 in Calm     93% 0.00 in 0 W/m2
03:24 47.1 °F 45.2 °F 30.02 in Calm     93% 0.00 in 0 W/m2
03:30 46.9 °F 45.0 °F 30.02 in Calm     93% 0.00 in 0 W/m2
03:36 46.8 °F 44.9 °F 30.02 in Calm     93% 0.00 in 0 W/m2
03:42 46.7 °F 44.8 °F 30.02 in Calm     93% 0.00 in 0 W/m2
03:48 46.6 °F 44.7 °F 30.02 in Calm     93% 0.00 in 0 W/m2
03:54 46.5 °F 44.6 °F 30.02 in Calm     93% 0.00 in 0 W/m2
04:00 46.4 °F 44.5 °F 30.02 in Calm     93% 0.00 in 0 W/m2
04:06 46.3 °F 44.4 °F 30.02 in Calm     93% 0.00 in 0 W/m2
04:12 46.4 °F 44.5 °F 30.02 in Calm     93% 0.00 in 0 W/m2
04:18 46.5 °F 44.6 °F 30.02 in Calm     93% 0.00 in 0 W/m2
04:24 46.4 °F 44.5 °F 30.02 in Calm     93% 0.00 in 0 W/m2
04:30 46.3 °F 44.4 °F 30.02 in Calm     93% 0.00 in 0 W/m2
04:36 46.2 °F 44.3 °F 30.02 in Calm     93% 0.00 in 0 W/m2
04:42 46.2 °F 44.3 °F 30.02 in Calm     93% 0.00 in 0 W/m2
04:48 46.1 °F 44.2 °F 30.02 in Calm     93% 0.00 in 0 W/m2
04:54 46.0 °F 44.1 °F 30.02 in Calm     93% 0.00 in 0 W/m2
05:00 45.9 °F 44.0 °F 30.02 in Calm     93% 0.00 in 0 W/m2
05:06 45.9 °F 44.0 °F 30.02 in Calm     93% 0.00 in 0 W/m2
05:12 45.9 °F 44.0 °F 30.02 in Calm     93% 0.00 in 0 W/m2
05:18 45.8 °F 43.9 °F 30.02 in Calm     93% 0.00 in 0 W/m2
05:24 45.9 °F 44.0 °F 30.02 in Calm     93% 0.00 in 0 W/m2
05:30 46.2 °F 44.3 °F 30.02 in Calm     93% 0.00 in 5 W/m2
05:36 46.1 °F 44.2 °F 30.02 in Calm     93% 0.00 in 7 W/m2
05:42 46.0 °F 44.1 °F 30.02 in Calm     93% 0.00 in 9 W/m2
05:48 45.9 °F 44.0 °F 30.02 in Calm     93% 0.00 in 11 W/m2
05:54 45.8 °F 43.9 °F 30.02 in Calm     93% 0.00 in 14 W/m2
06:00 45.8 °F 43.9 °F 30.02 in Calm     93% 0.00 in 18 W/m2
06:06 45.8 °F 44.2 °F 30.02 in Calm     94% 0.00 in 19 W/m2
06:12 45.8 °F 44.2 °F 30.02 in Calm     94% 0.00 in 23 W/m2
06:18 46.0 °F 44.4 °F 30.03 in Calm     94% 0.00 in 42 W/m2
06:24 46.5 °F 44.9 °F 30.03 in Calm     94% 0.00 in 127 W/m2
06:30 47.9 °F 46.3 °F 30.03 in Calm     94% 0.00 in 142 W/m2
06:36 48.8 °F 47.2 °F 30.03 in Calm     94% 0.00 in 156 W/m2
06:42 49.4 °F 47.7 °F 30.03 in Calm     94% 0.00 in 172 W/m2
06:48 49.7 °F 48.0 °F 30.03 in Calm     94% 0.00 in 186 W/m2
06:54 50.2 °F 48.5 °F 30.03 in Calm     94% 0.00 in 199 W/m2
07:00 51.1 °F 49.4 °F 30.03 in Calm     94% 0.00 in 213 W/m2
07:06 51.9 °F 50.2 °F 30.03 in Calm     94% 0.00 in 227 W/m2
07:12 52.3 °F 50.6 °F 30.03 in Calm     94% 0.00 in 244 W/m2
07:18 52.4 °F 50.4 °F 30.03 in Calm     93% 0.00 in 260 W/m2
07:24 52.9 °F 50.6 °F 30.03 in Calm     92% 0.00 in 274 W/m2
07:30 54.0 °F 50.8 °F 30.03 in Calm     89% 0.00 in 292 W/m2
07:36 54.6 °F 50.8 °F 30.03 in Calm     87% 0.00 in 313 W/m2
07:42 55.5 °F 50.7 °F 30.03 in Calm     84% 0.00 in 336 W/m2
07:48 56.1 °F 50.7 °F 30.03 in Calm   1.0 mph 82% 0.00 in 353 W/m2
07:54 56.5 °F 50.4 °F 30.03 in Calm     80% 0.00 in 367 W/m2
08:00 56.9 °F 50.5 °F 30.03 in Calm     79% 0.00 in 383 W/m2
08:06 57.4 °F 50.6 °F 30.03 in Calm     78% 0.00 in 403 W/m2
08:12 58.1 °F 51.3 °F 30.03 in Calm     78% 0.00 in 420 W/m2
08:18 58.8 °F 51.2 °F 30.03 in Calm     76% 0.00 in 438 W/m2
08:24 58.9 °F 50.6 °F 30.03 in Calm     74% 0.00 in 457 W/m2
08:30 59.9 °F 50.8 °F 30.03 in Calm     72% 0.00 in 473 W/m2
08:36 61.2 °F 51.7 °F 30.03 in Calm     71% 0.00 in 490 W/m2
08:42 62.2 °F 51.9 °F 30.03 in Calm     69% 0.00 in 510 W/m2
08:48 63.0 °F 51.0 °F 30.03 in Calm   2.0 mph 65% 0.00 in 527 W/m2
08:54 63.2 °F 51.6 °F 30.03 in Calm     66% 0.00 in 545 W/m2
09:00 63.4 °F 51.4 °F 30.03 in Calm     65% 0.00 in 564 W/m2
09:06 63.2 °F 50.4 °F 30.03 in Calm   2.0 mph 63% 0.00 in 580 W/m2
09:12 63.3 °F 50.9 °F 30.03 in Calm     64% 0.00 in 598 W/m2
09:18 64.0 °F 50.7 °F 30.03 in Calm   2.0 mph 62% 0.00 in 617 W/m2
09:24 64.5 °F 51.6 °F 30.03 in Calm     63% 0.00 in 633 W/m2
09:30 64.8 °F 51.0 °F 30.03 in Calm     61% 0.00 in 650 W/m2
09:36 64.9 °F 52.4 °F 30.03 in Calm   2.0 mph 64% 0.00 in 664 W/m2
09:42 64.6 °F 49.5 °F 30.02 in Calm     58% 0.00 in 684 W/m2
09:48 65.0 °F 50.8 °F 30.02 in Calm     60% 0.00 in 700 W/m2
09:54 65.6 °F 51.8 °F 30.02 in Calm     61% 0.00 in 714 W/m2
10:00 65.8 °F 50.6 °F 30.02 in SW 1.0 mph 1.0 mph 58% 0.00 in 731 W/m2
10:06 65.4 °F 50.7 °F 30.01 in SW 1.0 mph 2.0 mph 59% 0.00 in 745 W/m2
10:12 65.7 °F 50.0 °F 30.01 in SW 1.0 mph 3.0 mph 57% 0.00 in 759 W/m2
10:18 66.5 °F 52.2 °F 30.01 in South 1.0 mph 4.0 mph 60% 0.00 in 775 W/m2
10:24 66.7 °F 51.0 °F 30.01 in WNW 1.0 mph 3.0 mph 57% 0.00 in 791 W/m2
10:30 67.2 °F 51.0 °F 30.01 in WNW 1.0 mph 2.0 mph 56% 0.00 in 802 W/m2
10:36 67.7 °F 49.9 °F 30.00 in Calm   4.0 mph 53% 0.00 in 816 W/m2
10:42 68.0 °F 52.7 °F 30.00 in Calm   4.0 mph 58% 0.00 in 828 W/m2
10:48 68.6 °F 52.8 °F 30.00 in NW 1.0 mph 4.0 mph 57% 0.00 in 840 W/m2
10:54 69.3 °F 52.4 °F 30.00 in NW 1.0 mph 2.0 mph 55% 0.00 in 849 W/m2
11:00 69.4 °F 54.0 °F 30.00 in North 1.0 mph 1.0 mph 58% 0.00 in 860 W/m2
11:06 69.6 °F 51.7 °F 29.99 in Calm   1.0 mph 53% 0.00 in 874 W/m2
11:12 70.6 °F 54.6 °F 29.99 in Calm   3.0 mph 57% 0.00 in 881 W/m2
11:18 69.9 °F 51.5 °F 29.98 in NW 1.0 mph 4.0 mph 52% 0.00 in 889 W/m2
11:24 70.5 °F 55.5 °F 29.98 in North 2.0 mph 3.0 mph 59% 0.00 in 896 W/m2
11:30 70.6 °F 53.1 °F 29.98 in North 2.0 mph 2.0 mph 54% 0.00 in 904 W/m2
11:36 70.8 °F 50.7 °F 29.98 in North 1.0 mph 2.0 mph 49% 0.00 in 912 W/m2
11:42 70.6 °F 51.1 °F 29.97 in NNW 1.0 mph 6.0 mph 50% 0.00 in 918 W/m2
11:48 71.2 °F 51.6 °F 29.97 in NNW 3.0 mph 6.0 mph 50% 0.00 in 925 W/m2
11:54 70.9 °F 51.9 °F 29.97 in ENE 2.0 mph 3.0 mph 51% 0.00 in 932 W/m2
12:00 71.1 °F 52.6 °F 29.97 in North 1.0 mph 1.0 mph 52% 0.00 in 937 W/m2
12:06 71.7 °F 52.6 °F 29.96 in NE 1.0 mph 4.0 mph 51% 0.00 in 942 W/m2
12:12 71.7 °F 51.5 °F 29.96 in NW 1.0 mph 2.0 mph 49% 0.00 in 947 W/m2
12:18 72.4 °F 52.2 °F 29.95 in North 2.0 mph 3.0 mph 49% 0.00 in 951 W/m2
12:24 72.2 °F 50.3 °F 29.95 in North 1.0 mph 2.0 mph 46% 0.00 in 958 W/m2
12:30 73.0 °F 53.8 °F 29.95 in North 1.0 mph 5.0 mph 51% 0.00 in 960 W/m2
12:36 72.6 °F 51.2 °F 29.95 in NNW 2.0 mph 5.0 mph 47% 0.00 in 963 W/m2
12:42 72.7 °F 50.1 °F 29.95 in NNW 2.0 mph 3.0 mph 45% 0.00 in 963 W/m2
12:48 72.5 °F 51.1 °F 29.95 in SW 2.0 mph 3.0 mph 47% 0.00 in 965 W/m2
12:54 72.6 °F 52.9 °F 29.95 in SW 2.0 mph 4.0 mph 50% 0.00 in 962 W/m2
13:00 73.2 °F 52.3 °F 29.95 in WNW 2.0 mph 2.0 mph 48% 0.00 in 965 W/m2
13:06 73.8 °F 53.4 °F 29.94 in NW 2.0 mph 3.0 mph 49% 0.00 in 965 W/m2
13:12 73.5 °F 50.2 °F 29.94 in South 1.0 mph 3.0 mph 44% 0.00 in 965 W/m2
13:18 73.7 °F 49.8 °F 29.94 in WSW 2.0 mph 3.0 mph 43% 0.00 in 965 W/m2
13:24 74.0 °F 52.5 °F 29.93 in NW 1.0 mph 6.0 mph 47% 0.00 in 965 W/m2
13:30 73.7 °F 49.8 °F 29.93 in ENE 2.0 mph 2.0 mph 43% 0.00 in 963 W/m2
13:36 74.1 °F 51.4 °F 29.93 in NE 1.0 mph 3.0 mph 45% 0.00 in 962 W/m2
13:42 74.2 °F 50.9 °F 29.92 in NE 2.0 mph 5.0 mph 44% 0.00 in 965 W/m2
13:48 74.4 °F 50.4 °F 29.92 in North 2.0 mph 5.0 mph 43% 0.00 in 958 W/m2
13:54 74.8 °F 49.5 °F 29.92 in North 2.0 mph 2.0 mph 41% 0.00 in 954 W/m2
14:00 74.4 °F 49.2 °F 29.92 in SSE 1.0 mph 2.0 mph 41% 0.00 in 949 W/m2
14:06 75.1 °F 51.7 °F 29.92 in SW 2.0 mph 4.0 mph 44% 0.00 in 942 W/m2
14:12 75.9 °F 58.1 °F 29.91 in SSW 2.0 mph 2.0 mph 54% 0.00 in 939 W/m2
14:18 76.6 °F 50.5 °F 29.90 in WNW 1.0 mph 2.0 mph 40% 0.00 in 932 W/m2
14:24 76.4 °F 49.6 °F 29.90 in North 2.0 mph 4.0 mph 39% 0.00 in 925 W/m2
14:30 76.7 °F 49.2 °F 29.90 in NNW 2.0 mph 2.0 mph 38% 0.00 in 918 W/m2
14:36 76.5 °F 51.0 °F 29.89 in North 3.0 mph 7.0 mph 41% 0.00 in 911 W/m2
14:42 76.0 °F 47.8 °F 29.89 in East 3.0 mph 4.0 mph 37% 0.00 in 905 W/m2
14:48 76.8 °F 47.8 °F 29.89 in North 1.0 mph 4.0 mph 36% 0.00 in 923 W/m2
14:54 77.2 °F 53.0 °F 29.88 in NNW 2.0 mph 3.0 mph 43% 0.00 in 969 W/m2
15:00 76.8 °F 46.3 °F 29.88 in NNW 2.0 mph 2.0 mph 34% 0.00 in 606 W/m2
15:06 76.8 °F 47.8 °F 29.87 in ESE 2.0 mph 2.0 mph 36% 0.00 in 1051 W/m2
15:12 77.3 °F 45.1 °F 29.87 in SE 1.0 mph 1.0 mph 32% 0.00 in 455 W/m2
15:18 77.2 °F 44.2 °F 29.87 in NNE 2.0 mph 5.0 mph 31% 0.00 in 339 W/m2
15:24 76.4 °F 45.2 °F 29.87 in NNE 3.0 mph 4.0 mph 33% 0.00 in 290 W/m2
15:30 76.2 °F 42.5 °F 29.87 in North 3.0 mph 3.0 mph 30% 0.00 in 250 W/m2
15:36 76.0 °F 47.1 °F 29.87 in NNW 2.0 mph 3.0 mph 36% 0.00 in 204 W/m2
15:42 75.5 °F 44.4 °F 29.87 in NNW 2.0 mph 2.0 mph 33% 0.00 in 223 W/m2
15:48 75.6 °F 48.2 °F 29.86 in NNW 1.0 mph 2.0 mph 38% 0.00 in 346 W/m2
15:54 76.4 °F 47.5 °F 29.86 in NNW 1.0 mph 3.0 mph 36% 0.00 in 348 W/m2
16:00 77.1 °F 48.1 °F 29.86 in NNW 1.0 mph 2.0 mph 36% 0.00 in 241 W/m2
16:06 76.8 °F 43.0 °F 29.86 in NNW 1.0 mph 3.0 mph 30% 0.00 in 181 W/m2
16:12 76.2 °F 45.8 °F 29.85 in NNW 1.0 mph 3.0 mph 34% 0.00 in 148 W/m2
16:18 75.8 °F 49.1 °F 29.84 in Calm   3.0 mph 39% 0.00 in 146 W/m2
16:24 75.1 °F 51.7 °F 29.84 in Calm   2.0 mph 44% 0.00 in 165 W/m2
16:30 74.6 °F 53.6 °F 29.84 in Calm     48% 0.00 in 204 W/m2
16:36 74.8 °F 50.2 °F 29.84 in Calm   2.0 mph 42% 0.00 in 234 W/m2
16:42 74.9 °F 52.7 °F 29.84 in NNW 1.0 mph 4.0 mph 46% 0.00 in 272 W/m2
16:48 74.8 °F 50.8 °F 29.84 in NE 4.0 mph 4.0 mph 43% 0.00 in 197 W/m2
16:54 74.4 °F 52.9 °F 29.84 in NNW 4.0 mph 4.0 mph 47% 0.00 in 151 W/m2
17:00 73.9 °F 51.8 °F 29.83 in North 4.0 mph 4.0 mph 46% 0.00 in 111 W/m2
17:06 74.1 °F 50.2 °F 29.83 in WNW 4.0 mph 5.0 mph 43% 0.00 in 91 W/m2
17:12 73.8 °F 51.1 °F 29.83 in NW 4.0 mph 6.0 mph 45% 0.00 in 83 W/m2
17:18 73.9 °F 50.0 °F 29.83 in NNW 3.0 mph 6.0 mph 43% 0.00 in 69 W/m2
17:24 73.9 °F 51.2 °F 29.83 in NW 3.0 mph 3.0 mph 45% 0.00 in 77 W/m2
17:30 73.8 °F 50.5 °F 29.83 in North 3.0 mph 4.0 mph 44% 0.00 in 63 W/m2
17:36 73.7 °F 50.4 °F 29.82 in NNW 3.0 mph 5.0 mph 44% 0.00 in 63 W/m2
17:42 73.6 °F 49.7 °F 29.81 in WNW 3.0 mph 7.0 mph 43% 0.00 in 62 W/m2
17:48 73.4 °F 50.2 °F 29.81 in North 4.0 mph 7.0 mph 44% 0.00 in 63 W/m2
17:54 73.3 °F 51.3 °F 29.81 in NW 3.0 mph 3.0 mph 46% 0.00 in 62 W/m2
18:00 73.0 °F 48.5 °F 29.81 in NNW 4.0 mph 4.0 mph 42% 0.00 in 65 W/m2
18:06 73.0 °F 49.2 °F 29.81 in NNW 3.0 mph 4.0 mph 43% 0.00 in 70 W/m2
18:12 72.8 °F 48.4 °F 29.81 in NNE 2.0 mph 2.0 mph 42% 0.00 in 81 W/m2
18:18 72.6 °F 49.4 °F 29.81 in North 1.0 mph 3.0 mph 44% 0.00 in 79 W/m2
18:24 72.1 °F 49.6 °F 29.80 in NNW 2.0 mph 2.0 mph 45% 0.00 in 70 W/m2
18:30 71.7 °F 49.8 °F 29.80 in North 2.0 mph 2.0 mph 46% 0.00 in 88 W/m2
18:36 71.4 °F 48.9 °F 29.80 in North 1.0 mph 6.0 mph 45% 0.00 in 93 W/m2
18:42 71.6 °F 49.7 °F 29.80 in North 2.0 mph 2.0 mph 46% 0.00 in 91 W/m2
18:48 71.7 °F 48.0 °F 29.80 in NNW 2.0 mph 2.0 mph 43% 0.00 in 102 W/m2
18:54 71.4 °F 48.9 °F 29.80 in NNW 2.0 mph 2.0 mph 45% 0.00 in 91 W/m2
19:00 71.2 °F 49.9 °F 29.80 in NNW 1.0 mph 2.0 mph 47% 0.00 in 76 W/m2
19:06 70.9 °F 49.1 °F 29.79 in NW 1.0 mph 2.0 mph 46% 0.00 in 54 W/m2
19:12 70.6 °F 49.4 °F 29.79 in NW 1.0 mph 2.0 mph 47% 0.00 in 47 W/m2
19:18 70.3 °F 49.7 °F 29.80 in Calm   2.0 mph 48% 0.00 in 44 W/m2
19:24 70.1 °F 50.6 °F 29.80 in Calm     50% 0.00 in 33 W/m2
19:30 69.6 °F 51.2 °F 29.80 in Calm     52% 0.00 in 26 W/m2
19:36 68.9 °F 51.1 °F 29.80 in Calm     53% 0.00 in 21 W/m2
19:42 68.4 °F 50.1 °F 29.79 in Calm   2.0 mph 52% 0.00 in 16 W/m2
19:44 68.2 °F 49.4 °F 29.79 in NW 1.0 mph 2.0 mph 51% 0.00 in 14 W/m2
19:50 67.9 °F 50.6 °F 29.79 in NW 1.0 mph 1.0 mph 54% 0.00 in 14 W/m2
19:56 67.5 °F 51.2 °F 29.79 in NW 1.0 mph 1.0 mph 56% 0.00 in 12 W/m2
20:02 66.8 °F 49.6 °F 29.79 in Calm   1.0 mph 54% 0.00 in 11 W/m2
20:08 66.5 °F 50.3 °F 29.78 in NW 1.0 mph 3.0 mph 56% 0.00 in 11 W/m2
20:14 66.2 °F 49.6 °F 29.78 in Calm     55% 0.00 in 9 W/m2
20:20 65.9 °F 50.2 °F 29.78 in Calm     57% 0.00 in 9 W/m2
20:26 65.4 °F 50.2 °F 29.78 in Calm     58% 0.00 in 9 W/m2
20:32 64.9 °F 49.8 °F 29.79 in Calm     58% 0.00 in 7 W/m2
20:38 64.7 °F 50.0 °F 29.79 in Calm   1.0 mph 59% 0.00 in 5 W/m2
20:44 64.5 °F 51.6 °F 29.78 in Calm   2.0 mph 63% 0.00 in 0 W/m2
20:50 64.0 °F 51.1 °F 29.78 in Calm     63% 0.00 in 0 W/m2
20:56 63.5 °F 50.2 °F 29.78 in Calm     62% 0.00 in 0 W/m2
21:02 63.1 °F 49.9 °F 29.78 in Calm     62% 0.00 in 0 W/m2
21:08 62.5 °F 51.0 °F 29.78 in Calm     66% 0.00 in 0 W/m2
21:14 61.9 °F 50.4 °F 29.78 in Calm     66% 0.00 in 0 W/m2
21:20 61.5 °F 50.0 °F 29.78 in Calm     66% 0.00 in 0 W/m2
21:26 61.1 °F 52.0 °F 29.78 in Calm     72% 0.00 in 0 W/m2
21:32 60.4 °F 51.3 °F 29.78 in Calm     72% 0.00 in 0 W/m2
21:38 59.7 °F 50.7 °F 29.78 in Calm     72% 0.00 in 0 W/m2
21:44 59.3 °F 50.6 °F 29.78 in Calm     73% 0.00 in 0 W/m2
21:50 58.9 °F 51.3 °F 29.78 in Calm     76% 0.00 in 0 W/m2
21:56 58.4 °F 50.9 °F 29.78 in Calm     76% 0.00 in 0 W/m2
22:02 58.1 °F 50.9 °F 29.78 in Calm     77% 0.00 in 0 W/m2
22:08 57.8 °F 50.6 °F 29.78 in Calm     77% 0.00 in 0 W/m2
22:14 57.5 °F 50.3 °F 29.78 in Calm     77% 0.00 in 0 W/m2
22:20 57.3 °F 50.1 °F 29.78 in Calm     77% 0.00 in 0 W/m2
22:26 57.1 °F 50.3 °F 29.78 in Calm     78% 0.00 in 0 W/m2
22:32 56.8 °F 50.4 °F 29.78 in Calm     79% 0.00 in 0 W/m2
22:38 56.6 °F 50.2 °F 29.78 in Calm     79% 0.00 in 0 W/m2
22:44 56.5 °F 50.4 °F 29.78 in Calm     80% 0.00 in 0 W/m2
22:50 56.3 °F 50.5 °F 29.78 in Calm     81% 0.00 in 0 W/m2
22:56 56.0 °F 49.9 °F 29.78 in Calm     80% 0.00 in 0 W/m2
23:02 56.0 °F 50.6 °F 29.78 in Calm     82% 0.00 in 0 W/m2
23:08 55.9 °F 50.5 °F 29.78 in Calm     82% 0.00 in 0 W/m2
23:10 55.9 °F 50.5 °F 29.78 in Calm     82% 0.00 in 0 W/m2
23:16 55.7 °F 50.0 °F 29.77 in Calm     81% 0.00 in 0 W/m2
23:22 55.6 °F 49.9 °F 29.77 in Calm     81% 0.00 in 0 W/m2
23:28 55.4 °F 49.7 °F 29.77 in Calm     81% 0.00 in 0 W/m2
23:34 55.2 °F 49.5 °F 29.76 in Calm     81% 0.00 in 0 W/m2
23:40 55.0 °F 49.6 °F 29.76 in Calm     82% 0.00 in 0 W/m2
23:46 54.9 °F 49.8 °F 29.76 in Calm     83% 0.00 in 0 W/m2
23:52 54.8 °F 49.7 °F 29.76 in Calm     83% 0.00 in 0 W/m2
23:58 54.7 °F 50.0 °F 29.76 in Calm     84% 0.00 in 0 W/m2
Country Meadow, Clay, NY, USA
Compliments of Weather Underground - 2 mb